< < Back
Terminal Aerodrome Forecast


Current Version              Previous Versions:   1  2  3  4  5  6  7  8  9  

Terminal Aerodrome Forecast

520
FTUS42 KTAE 262325
TAFVLD
TAF
KVLD 262325Z 2700/2724 VRB03KT P6SM SCT070=

Latest METAR

261
SAUS70 KWBC 280400 RRL
MTRVLD
METAR KVLD 280353Z AUTO 11003KT 10SM CLR 23/19 A3006 RMK AO2 SLP184
T02280189


USA.gov is the U.S. government's official web portal to all federal, state and local government web resources and services.